createdAt,value
2023-05-14T00:01:08.060Z,19.45
2023-05-14T00:03:34.648Z,18.65
2023-05-14T00:06:01.086Z,19.33
2023-05-14T00:08:27.530Z,23.65
2023-05-14T00:10:54.056Z,21.23
2023-05-14T00:13:20.460Z,19.63
2023-05-14T00:15:46.968Z,19.35
2023-05-14T00:18:13.367Z,20.10
2023-05-14T00:20:40.553Z,20.02
2023-05-14T00:23:06.939Z,19.00
2023-05-14T00:25:33.310Z,19.45
2023-05-14T00:27:59.780Z,19.90
2023-05-14T00:30:26.278Z,22.00
2023-05-14T00:32:52.847Z,18.55
2023-05-14T00:35:20.461Z,18.20
2023-05-14T00:37:47.390Z,19.45
2023-05-14T00:40:14.298Z,19.60
2023-05-14T00:42:40.899Z,19.52
2023-05-14T00:45:07.761Z,18.67
2023-05-14T00:47:34.845Z,18.88
2023-05-14T00:50:02.566Z,21.75
2023-05-14T00:52:29.094Z,20.95
2023-05-14T00:54:56.761Z,20.60
2023-05-14T00:57:23.170Z,17.92
2023-05-14T00:59:49.746Z,20.17
2023-05-14T01:02:16.165Z,21.58
2023-05-14T01:04:42.696Z,19.83
2023-05-14T01:07:13.235Z,19.98
2023-05-14T01:09:50.026Z,16.95
2023-05-14T01:12:37.255Z,18.17
2023-05-14T01:15:12.609Z,21.90
2023-05-14T01:17:46.102Z,18.58
2023-05-14T01:20:12.767Z,18.58
2023-05-14T01:22:39.241Z,20.58
2023-05-14T01:25:06.594Z,19.10
2023-05-14T01:27:49.827Z,20.67
2023-05-14T01:30:37.513Z,16.88
2023-05-14T01:33:10.326Z,19.25
2023-05-14T01:35:37.301Z,19.85
2023-05-14T01:38:06.762Z,18.98
2023-05-14T01:40:34.621Z,18.88
2023-05-14T01:43:02.441Z,19.88
2023-05-14T01:45:30.941Z,19.00
2023-05-14T01:47:58.006Z,22.52
2023-05-14T01:50:24.657Z,20.42
2023-05-14T01:52:53.396Z,21.95
2023-05-14T01:55:19.857Z,17.25
2023-05-14T01:57:46.273Z,20.23
2023-05-14T02:00:13.006Z,19.10
2023-05-14T02:02:39.492Z,19.27
2023-05-14T02:05:07.159Z,20.20
2023-05-14T02:07:33.869Z,21.90
2023-05-14T02:10:00.330Z,19.05
2023-05-14T02:12:26.917Z,19.65
2023-05-14T02:14:53.394Z,19.33
2023-05-14T02:17:19.936Z,18.77
2023-05-14T02:19:46.456Z,19.70
2023-05-14T02:22:13.138Z,19.10
2023-05-14T02:24:39.632Z,19.25
2023-05-14T02:27:06.339Z,20.48
2023-05-14T02:29:32.752Z,17.83
2023-05-14T02:31:59.202Z,19.98
2023-05-14T02:34:25.986Z,18.88
2023-05-14T02:36:52.421Z,19.15
2023-05-14T02:39:18.840Z,23.83
2023-05-14T02:41:45.194Z,21.05
2023-05-14T02:44:11.570Z,21.83
2023-05-14T02:46:37.973Z,19.83
2023-05-14T02:49:04.414Z,18.88
2023-05-14T02:51:30.762Z,20.05
2023-05-14T02:53:57.132Z,21.60
2023-05-14T02:56:23.503Z,20.80
2023-05-14T02:58:49.863Z,23.58
2023-05-14T03:01:16.567Z,19.55
2023-05-14T03:03:43.409Z,18.88
2023-05-14T03:06:10.377Z,19.13
2023-05-14T03:08:36.836Z,19.65
2023-05-14T03:11:03.430Z,20.60
2023-05-14T03:13:29.927Z,21.02
2023-05-14T03:15:56.899Z,19.00
2023-05-14T03:18:25.714Z,20.67
2023-05-14T03:20:52.115Z,19.75
2023-05-14T03:23:18.533Z,20.23
2023-05-14T03:25:44.959Z,23.17
2023-05-14T03:28:11.411Z,22.73
2023-05-14T03:30:38.061Z,23.40
2023-05-14T03:33:04.653Z,23.15
2023-05-14T03:35:31.519Z,21.30
2023-05-14T03:37:59.229Z,21.13
2023-05-14T03:40:26.193Z,22.23
2023-05-14T03:42:52.703Z,20.10
2023-05-14T03:45:19.277Z,22.00
2023-05-14T03:47:45.720Z,20.23
2023-05-14T03:50:12.179Z,21.75
2023-05-14T03:52:38.604Z,18.48
2023-05-14T03:55:05.402Z,19.13
2023-05-14T03:57:31.859Z,23.50
2023-05-14T03:59:58.452Z,21.33
2023-05-14T04:02:25.205Z,19.45
2023-05-14T04:04:51.801Z,20.83
2023-05-14T04:07:18.523Z,21.17
2023-05-14T04:09:44.896Z,19.55
2023-05-14T04:12:11.652Z,17.48
2023-05-14T04:14:38.052Z,17.92
2023-05-14T04:17:04.618Z,18.58
2023-05-14T04:19:31.346Z,20.65
2023-05-14T04:21:57.754Z,18.45
2023-05-14T04:24:24.206Z,20.45
2023-05-14T04:26:50.630Z,17.50
2023-05-14T04:29:17.066Z,18.45
2023-05-14T04:31:44.728Z,20.90
2023-05-14T04:34:11.158Z,21.00
2023-05-14T04:36:37.557Z,19.05
2023-05-14T04:39:04.134Z,20.83
2023-05-14T04:41:30.652Z,18.85
2023-05-14T04:43:57.141Z,18.75
2023-05-14T04:46:23.685Z,19.90
2023-05-14T04:48:51.363Z,19.83
2023-05-14T04:51:17.760Z,16.38
2023-05-14T04:53:44.190Z,19.48
2023-05-14T04:56:10.811Z,21.45
2023-05-14T04:58:37.204Z,17.85
2023-05-14T05:01:05.782Z,21.00
2023-05-14T05:03:32.685Z,20.70
2023-05-14T05:05:59.168Z,17.85
2023-05-14T05:08:26.294Z,19.35
2023-05-14T05:10:52.719Z,16.55
2023-05-14T05:13:19.227Z,16.25
2023-05-14T05:15:45.849Z,15.15
2023-05-14T05:18:12.326Z,20.67
2023-05-14T05:20:38.776Z,20.40
2023-05-14T05:23:05.381Z,19.58
2023-05-14T05:25:32.222Z,18.13
2023-05-14T05:27:58.560Z,17.20
2023-05-14T05:30:25.092Z,16.67
2023-05-14T05:32:51.835Z,16.65
2023-05-14T05:35:18.523Z,20.77
2023-05-14T05:37:45.397Z,16.33
2023-05-14T05:40:13.992Z,16.85
2023-05-14T05:42:41.074Z,17.25
2023-05-14T05:45:07.968Z,16.08
2023-05-14T05:47:34.664Z,16.35
2023-05-14T05:50:01.090Z,16.08
2023-05-14T05:52:27.500Z,16.30
2023-05-14T05:54:53.903Z,14.90
2023-05-14T05:57:21.775Z,17.10
2023-05-14T05:59:48.146Z,15.38
2023-05-14T06:02:14.569Z,17.17
2023-05-14T06:04:41.082Z,18.00
2023-05-14T06:07:07.452Z,16.33
2023-05-14T06:09:33.850Z,18.92
2023-05-14T06:12:01.409Z,19.70
2023-05-14T06:14:27.808Z,16.17
2023-05-14T06:16:54.338Z,16.65
2023-05-14T06:19:20.821Z,16.25
2023-05-14T06:21:47.216Z,14.85
2023-05-14T06:24:13.648Z,14.55
2023-05-14T06:26:40.252Z,14.25
2023-05-14T06:29:06.648Z,15.25
2023-05-14T06:31:33.038Z,15.32
2023-05-14T06:33:59.421Z,17.70
2023-05-14T06:36:25.979Z,16.42
2023-05-14T06:38:52.384Z,14.85
2023-05-14T06:41:18.755Z,14.52
2023-05-14T06:43:45.129Z,17.02
2023-05-14T06:46:11.636Z,15.05
2023-05-14T06:48:38.105Z,15.07
2023-05-14T06:51:04.569Z,14.77
2023-05-14T06:53:31.533Z,15.27
2023-05-14T06:55:58.003Z,13.77
2023-05-14T06:58:24.394Z,16.13
2023-05-14T07:00:50.824Z,14.75
2023-05-14T07:03:17.240Z,14.10
2023-05-14T07:05:45.970Z,15.75
2023-05-14T07:08:12.495Z,15.75
2023-05-14T07:10:39.213Z,13.88
2023-05-14T07:13:05.957Z,14.68
2023-05-14T07:15:32.546Z,12.73
2023-05-14T07:17:59.032Z,13.63
2023-05-14T07:20:26.049Z,12.35
2023-05-14T07:22:52.816Z,15.05
2023-05-14T07:25:19.289Z,13.95
2023-05-14T07:27:45.710Z,19.33
2023-05-14T07:30:12.270Z,12.48
2023-05-14T07:32:38.720Z,14.43
2023-05-14T07:35:06.174Z,12.75
2023-05-14T07:37:32.813Z,14.82
2023-05-14T07:39:59.278Z,13.10
2023-05-14T07:42:35.739Z,15.35
2023-05-14T07:45:03.556Z,14.48
2023-05-14T07:47:30.064Z,17.63
2023-05-14T07:49:57.318Z,14.07
2023-05-14T07:52:24.397Z,17.30
2023-05-14T07:54:52.061Z,15.88
2023-05-14T07:57:19.703Z,14.98
2023-05-14T07:59:46.733Z,16.95
2023-05-14T08:02:13.995Z,14.73
2023-05-14T08:04:40.488Z,16.10
2023-05-14T08:07:08.533Z,14.80
2023-05-14T08:09:34.970Z,16.38
2023-05-14T08:12:01.546Z,14.50
2023-05-14T08:14:28.532Z,14.25
2023-05-14T08:16:55.047Z,14.65
2023-05-14T08:19:24.366Z,15.35
2023-05-14T08:21:51.419Z,17.70
2023-05-14T08:24:18.980Z,15.82
2023-05-14T08:26:45.476Z,16.05
2023-05-14T08:29:12.941Z,15.73
2023-05-14T08:31:41.204Z,14.80
2023-05-14T08:34:07.613Z,16.33
2023-05-14T08:36:34.073Z,15.93
2023-05-14T08:39:00.425Z,17.95
2023-05-14T08:41:26.794Z,15.88
2023-05-14T08:43:59.250Z,15.55
2023-05-14T08:46:29.738Z,15.15
2023-05-14T08:49:29.623Z,17.83
2023-05-14T08:51:56.201Z,15.05
2023-05-14T08:54:24.683Z,14.98
2023-05-14T08:56:53.182Z,15.50
2023-05-14T08:59:20.501Z,15.00
2023-05-14T09:01:49.255Z,13.70
2023-05-14T09:04:19.497Z,15.38
2023-05-14T09:06:49.980Z,14.63
2023-05-14T09:17:25.364Z,14.95
2023-05-14T09:19:53.237Z,12.82
2023-05-14T09:22:20.896Z,14.20
2023-05-14T09:28:28.458Z,13.68
2023-05-14T09:30:54.942Z,14.25
2023-05-14T09:33:28.553Z,15.23
2023-05-14T09:35:58.793Z,12.63
2023-05-14T09:38:34.653Z,13.32
2023-05-14T09:41:01.139Z,13.38
2023-05-14T09:43:27.636Z,12.32
2023-05-14T09:45:54.067Z,13.93
2023-05-14T09:48:23.139Z,14.43
2023-05-14T09:50:49.832Z,13.63
2023-05-14T09:53:17.675Z,13.63
2023-05-14T09:55:45.451Z,15.68
2023-05-14T09:58:14.248Z,15.80
2023-05-14T10:00:46.092Z,12.32
2023-05-14T10:03:15.571Z,12.52
2023-05-14T10:08:30.126Z,16.38
2023-05-14T10:10:59.394Z,13.95
2023-05-14T10:13:31.502Z,14.15
2023-05-14T10:16:21.839Z,13.20
2023-05-14T10:18:52.658Z,11.23
2023-05-14T10:21:21.803Z,14.75
2023-05-14T10:23:50.300Z,11.93
2023-05-14T10:26:17.093Z,13.35
2023-05-14T10:28:44.188Z,11.38
2023-05-14T10:31:10.726Z,11.43
2023-05-14T10:33:50.788Z,11.70
2023-05-14T10:36:18.532Z,14.23
2023-05-14T10:38:45.469Z,13.73
2023-05-14T10:41:15.063Z,13.30
2023-05-14T10:43:44.452Z,13.85
2023-05-14T10:46:13.348Z,12.02
2023-05-14T10:48:42.333Z,11.45
2023-05-14T10:51:10.709Z,12.25
2023-05-14T10:53:39.636Z,14.00
2023-05-14T10:56:11.600Z,10.38
2023-05-14T10:58:42.133Z,14.48
2023-05-14T11:03:41.302Z,11.45
2023-05-14T11:06:08.839Z,18.33
2023-05-14T11:08:41.656Z,12.32
2023-05-14T11:11:09.274Z,30.23
2023-05-14T11:13:36.029Z,13.35
2023-05-14T11:16:15.143Z,10.23
2023-05-14T11:18:48.231Z,11.73
2023-05-14T11:21:17.574Z,10.23
2023-05-14T11:23:46.850Z,10.18
2023-05-14T11:26:13.288Z,11.68
2023-05-14T11:28:42.402Z,11.77
2023-05-14T11:31:10.181Z,11.18
2023-05-14T11:33:36.666Z,14.85
2023-05-14T11:36:04.274Z,11.20
2023-05-14T11:38:30.845Z,11.57
2023-05-14T11:40:59.586Z,11.50
2023-05-14T11:43:30.273Z,10.60
2023-05-14T11:45:59.831Z,11.85
2023-05-14T11:48:26.422Z,11.18
2023-05-14T11:50:53.078Z,11.40
2023-05-14T11:53:24.483Z,10.80
2023-05-14T11:55:51.075Z,14.68
2023-05-14T11:58:18.879Z,13.13
2023-05-14T12:00:46.021Z,11.05
2023-05-14T12:03:12.632Z,11.30
2023-05-14T12:05:39.522Z,13.52
2023-05-14T12:08:23.093Z,13.20
2023-05-14T12:10:49.491Z,11.38
2023-05-14T12:13:17.545Z,11.20
2023-05-14T12:15:53.640Z,11.60
2023-05-14T12:18:24.590Z,12.25
2023-05-14T12:20:52.122Z,10.07
2023-05-14T12:23:31.424Z,12.30
2023-05-14T12:26:10.143Z,9.52
2023-05-14T12:28:45.728Z,10.23
2023-05-14T12:31:12.346Z,12.10
2023-05-14T12:33:38.837Z,11.38
2023-05-14T12:36:21.208Z,10.60
2023-05-14T12:38:49.908Z,8.98
2023-05-14T12:41:20.840Z,10.73
2023-05-14T12:43:48.760Z,10.63
2023-05-14T12:46:15.473Z,10.43
2023-05-14T12:48:41.989Z,9.73
2023-05-14T12:51:08.519Z,11.68
2023-05-14T12:53:35.268Z,10.77
2023-05-14T12:56:01.813Z,12.80
2023-05-14T12:58:30.545Z,10.80
2023-05-14T13:00:57.060Z,10.48
2023-05-14T13:03:23.905Z,11.63
2023-05-14T13:05:52.302Z,8.93
2023-05-14T13:08:21.435Z,11.23
2023-05-14T13:10:48.149Z,12.90
2023-05-14T13:13:17.365Z,12.10
2023-05-14T13:15:46.597Z,11.95
2023-05-14T13:18:13.988Z,10.68
2023-05-14T13:20:42.980Z,10.63
2023-05-14T13:23:09.790Z,12.27
2023-05-14T13:25:36.182Z,10.95
2023-05-14T13:28:02.823Z,12.10
2023-05-14T13:30:29.768Z,9.77
2023-05-14T13:32:56.260Z,9.75
2023-05-14T13:35:22.885Z,8.98
2023-05-14T13:37:49.719Z,9.93
2023-05-14T13:40:16.733Z,9.98
2023-05-14T13:42:43.283Z,10.63
2023-05-14T13:45:10.233Z,9.32
2023-05-14T13:47:36.848Z,9.77
2023-05-14T13:50:03.457Z,9.38
2023-05-14T13:52:29.963Z,10.48
2023-05-14T13:54:56.829Z,12.68
2023-05-14T13:57:23.336Z,10.25
2023-05-14T13:59:49.964Z,10.20
2023-05-14T14:02:16.440Z,10.40
2023-05-14T14:04:44.890Z,9.70
2023-05-14T14:07:11.421Z,10.05
2023-05-14T14:09:38.084Z,9.98
2023-05-14T14:12:05.110Z,8.57
2023-05-14T14:14:34.978Z,12.63
2023-05-14T14:17:01.393Z,10.63
2023-05-14T14:19:27.882Z,9.45
2023-05-14T14:21:54.352Z,10.75
2023-05-14T14:24:20.892Z,9.75
2023-05-14T14:26:48.868Z,7.65
2023-05-14T14:29:15.661Z,8.55
2023-05-14T14:31:43.540Z,10.05
2023-05-14T14:34:10.109Z,9.02
2023-05-14T14:36:38.704Z,8.40
2023-05-14T14:39:05.252Z,10.27
2023-05-14T14:41:31.676Z,8.70
2023-05-14T14:43:58.438Z,11.07
2023-05-14T14:46:25.018Z,9.88
2023-05-14T14:48:51.743Z,10.43
2023-05-14T14:51:18.377Z,8.65
2023-05-14T14:53:44.794Z,9.13
2023-05-14T14:56:11.193Z,8.20
2023-05-14T14:58:38.316Z,9.95
2023-05-14T15:01:04.990Z,9.15
2023-05-14T15:03:31.731Z,10.48
2023-05-14T15:05:58.635Z,9.90
2023-05-14T15:08:29.551Z,8.52
2023-05-14T15:10:56.821Z,9.98
2023-05-14T15:13:24.013Z,10.18
2023-05-14T15:15:53.514Z,11.38
2023-05-14T15:18:20.596Z,8.40
2023-05-14T15:20:47.162Z,11.77
2023-05-14T15:23:16.269Z,8.85
2023-05-14T15:25:42.779Z,8.70
2023-05-14T15:28:09.463Z,11.10
2023-05-14T15:30:36.022Z,9.77
2023-05-14T15:33:02.726Z,10.57
2023-05-14T15:35:29.317Z,11.23
2023-05-14T15:37:59.402Z,14.10
2023-05-14T15:40:27.404Z,9.07
2023-05-14T15:42:56.529Z,11.27
2023-05-14T15:45:23.203Z,7.80
2023-05-14T15:47:51.907Z,11.15
2023-05-14T15:50:18.691Z,10.80
2023-05-14T15:52:45.419Z,10.23
2023-05-14T15:55:11.910Z,9.55
2023-05-14T15:57:38.655Z,10.77
2023-05-14T16:00:10.408Z,9.60
2023-05-14T16:02:40.136Z,13.45
2023-05-14T16:05:08.320Z,13.00
2023-05-14T16:07:35.185Z,10.30
2023-05-14T16:10:01.640Z,8.48
2023-05-14T16:12:28.146Z,8.85
2023-05-14T16:14:54.696Z,10.30
2023-05-14T16:17:21.371Z,9.60
2023-05-14T16:19:47.883Z,10.27
2023-05-14T16:22:14.403Z,12.80
2023-05-14T16:24:41.437Z,9.65
2023-05-14T16:27:07.955Z,10.95
2023-05-14T16:29:34.494Z,10.55
2023-05-14T16:32:01.063Z,12.52
2023-05-14T16:34:27.916Z,9.73
2023-05-14T16:36:54.364Z,10.25
2023-05-14T16:39:21.143Z,11.52
2023-05-14T16:41:47.549Z,10.32
2023-05-14T16:44:13.938Z,9.90
2023-05-14T16:46:40.650Z,10.50
2023-05-14T16:49:07.131Z,10.82
2023-05-14T16:51:33.646Z,11.85
2023-05-14T16:54:00.300Z,10.50
2023-05-14T16:56:27.023Z,9.57
2023-05-14T16:58:53.645Z,11.82
2023-05-14T17:01:20.144Z,9.05
2023-05-14T17:03:46.866Z,11.48
2023-05-14T17:06:13.438Z,10.77
2023-05-14T17:08:39.972Z,11.82
2023-05-14T17:11:06.518Z,12.20
2023-05-14T17:13:33.494Z,11.05
2023-05-14T17:16:01.190Z,10.85
2023-05-14T17:18:28.004Z,11.25
2023-05-14T17:20:56.839Z,13.20
2023-05-14T17:23:23.421Z,12.18
2023-05-14T17:25:50.138Z,13.30
2023-05-14T17:28:16.719Z,16.55
2023-05-14T17:30:50.665Z,14.77
2023-05-14T17:33:17.327Z,13.98
2023-05-14T17:35:45.821Z,14.30
2023-05-14T17:38:12.430Z,12.75
2023-05-14T17:40:40.838Z,15.43
2023-05-14T17:43:08.581Z,14.68
2023-05-14T17:45:46.457Z,17.05
2023-05-14T17:48:20.340Z,17.92
2023-05-14T17:50:46.919Z,12.63
2023-05-14T17:53:13.605Z,15.32
2023-05-14T17:55:43.505Z,15.52
2023-05-14T17:58:15.322Z,18.30
2023-05-14T18:00:42.342Z,16.55
2023-05-14T18:03:09.122Z,12.80
2023-05-14T18:05:36.300Z,14.13
2023-05-14T18:08:03.254Z,12.98
2023-05-14T18:10:29.842Z,13.05
2023-05-14T18:12:56.665Z,18.38
2023-05-14T18:15:25.544Z,13.63
2023-05-14T18:17:53.079Z,14.05
2023-05-14T18:20:19.975Z,14.05
2023-05-14T18:22:46.483Z,13.80
2023-05-14T18:25:13.647Z,14.88
2023-05-14T18:27:44.421Z,12.30
2023-05-14T18:30:15.009Z,14.05
2023-05-14T18:32:43.626Z,15.20
2023-05-14T18:35:17.774Z,12.79
2023-05-14T18:37:44.346Z,15.45
2023-05-14T18:40:15.563Z,11.45
2023-05-14T18:42:43.427Z,12.80
2023-05-14T18:45:10.473Z,14.23
2023-05-14T18:47:37.255Z,16.55
2023-05-14T18:50:04.841Z,12.38
2023-05-14T18:52:32.317Z,12.20
2023-05-14T18:54:58.746Z,13.50
2023-05-14T18:57:27.209Z,13.35
2023-05-14T18:59:53.645Z,11.20
2023-05-14T19:02:20.233Z,12.05
2023-05-14T19:07:16.257Z,14.20
2023-05-14T19:09:45.667Z,12.82
2023-05-14T19:12:12.507Z,13.07
2023-05-14T19:14:38.957Z,12.15
2023-05-14T19:17:05.774Z,14.75
2023-05-14T19:19:32.585Z,12.30
2023-05-14T19:21:59.155Z,12.93
2023-05-14T19:24:25.840Z,15.80
2023-05-14T19:26:52.618Z,14.52
2023-05-14T19:29:19.303Z,16.02
2023-05-14T19:31:45.959Z,12.98
2023-05-14T19:34:12.479Z,11.93
2023-05-14T19:36:38.930Z,15.88
2023-05-14T19:39:05.992Z,13.98
2023-05-14T19:41:32.461Z,15.45
2023-05-14T19:43:58.908Z,16.95
2023-05-14T19:46:26.031Z,13.60
2023-05-14T19:48:52.895Z,12.35
2023-05-14T19:51:19.404Z,21.02
2023-05-14T19:53:45.882Z,10.48
2023-05-14T19:56:12.348Z,12.73
2023-05-14T19:58:38.978Z,11.65
2023-05-14T20:01:05.537Z,13.77
2023-05-14T20:03:32.205Z,15.15
2023-05-14T20:05:58.961Z,11.38
2023-05-14T20:08:25.491Z,13.95
2023-05-14T20:10:52.089Z,10.82
2023-05-14T20:13:18.568Z,14.95
2023-05-14T20:15:45.252Z,13.73
2023-05-14T20:18:12.175Z,12.48
2023-05-14T20:20:39.920Z,13.95
2023-05-14T20:23:09.001Z,12.88
2023-05-14T20:25:35.458Z,14.75
2023-05-14T20:28:02.051Z,14.43
2023-05-14T20:30:28.531Z,16.90
2023-05-14T20:32:55.090Z,14.75
2023-05-14T20:35:21.567Z,13.57
2023-05-14T20:37:49.571Z,19.13
2023-05-14T20:40:16.172Z,13.98
2023-05-14T20:42:42.841Z,13.43
2023-05-14T20:45:10.406Z,11.77
2023-05-14T20:47:37.094Z,14.27
2023-05-14T20:50:04.659Z,14.00
2023-05-14T20:52:31.149Z,14.07
2023-05-14T20:55:00.033Z,14.57
2023-05-14T20:57:28.352Z,15.68
2023-05-14T20:59:54.798Z,13.30
2023-05-14T21:02:21.476Z,11.85
2023-05-14T21:04:50.746Z,14.75
2023-05-14T21:07:17.216Z,15.00
2023-05-14T21:09:46.508Z,12.98
2023-05-14T21:12:12.978Z,12.98
2023-05-14T21:14:39.493Z,14.65
2023-05-14T21:17:05.954Z,15.10
2023-05-14T21:19:32.524Z,13.68
2023-05-14T21:21:58.911Z,12.60
2023-05-14T21:24:25.440Z,11.50
2023-05-14T21:26:53.577Z,13.70
2023-05-14T21:29:20.334Z,10.93
2023-05-14T21:31:47.082Z,13.45
2023-05-14T21:34:13.543Z,12.48
2023-05-14T21:36:39.991Z,13.20
2023-05-14T21:39:06.684Z,11.45
2023-05-14T21:41:33.219Z,14.30
2023-05-14T21:43:59.650Z,15.57
2023-05-14T21:46:26.494Z,12.20
2023-05-14T21:48:53.258Z,13.70
2023-05-14T21:51:19.696Z,14.50
2023-05-14T21:53:48.260Z,13.63
2023-05-14T21:56:18.276Z,11.98
2023-05-14T21:58:44.969Z,13.25
2023-05-14T22:01:11.628Z,11.93
2023-05-14T22:03:38.301Z,12.02
2023-05-14T22:06:05.317Z,13.32
2023-05-14T22:08:32.215Z,13.05
2023-05-14T22:10:58.716Z,14.32
2023-05-14T22:13:25.332Z,13.73
2023-05-14T22:16:01.338Z,13.48
2023-05-14T22:18:36.543Z,14.73
2023-05-14T22:21:03.215Z,12.80
2023-05-14T22:23:29.685Z,16.05
2023-05-14T22:25:56.184Z,13.93
2023-05-14T22:28:22.745Z,13.25
2023-05-14T22:30:49.346Z,13.65
2023-05-14T22:33:15.745Z,13.73
2023-05-14T22:35:42.564Z,15.57
2023-05-14T22:38:09.196Z,12.88
2023-05-14T22:40:36.474Z,14.43
2023-05-14T22:43:02.938Z,14.88
2023-05-14T22:45:29.350Z,15.15
2023-05-14T22:47:56.134Z,14.98
2023-05-14T22:50:22.576Z,16.52
2023-05-14T22:52:48.957Z,16.58
2023-05-14T22:55:15.421Z,16.45
2023-05-14T22:57:41.927Z,16.20
2023-05-14T23:00:09.049Z,16.98
2023-05-14T23:02:35.699Z,17.92
2023-05-14T23:05:02.220Z,15.48
2023-05-14T23:07:28.769Z,16.42
2023-05-14T23:09:55.267Z,17.67
2023-05-14T23:12:21.724Z,14.73
2023-05-14T23:14:48.190Z,16.98
2023-05-14T23:17:17.464Z,15.50
2023-05-14T23:19:43.971Z,15.85
2023-05-14T23:22:10.418Z,15.63
2023-05-14T23:24:36.891Z,15.25
2023-05-14T23:27:03.631Z,17.42
2023-05-14T23:29:30.381Z,21.15
2023-05-14T23:31:57.060Z,16.45
2023-05-14T23:34:24.821Z,18.00
2023-05-14T23:36:51.449Z,21.90
2023-05-14T23:39:18.164Z,22.40
2023-05-14T23:41:44.542Z,16.88
2023-05-14T23:44:11.000Z,17.90
2023-05-14T23:46:37.510Z,18.45
2023-05-14T23:49:04.051Z,15.35
2023-05-14T23:51:30.624Z,16.10
2023-05-14T23:53:58.677Z,17.40
2023-05-14T23:56:26.257Z,14.73
2023-05-14T23:58:53.039Z,16.50
